Time;durP1;ratioP1;P1;durP2;ratioP2;P2;SDS_P1;SDS_P2;PMS_P1;PMS_P2;Temp;Humidity;BMP_temperature;BMP_pressure;BME280_temperature;BME280_humidity;BME280_pressure;Samples;Min_cycle;Max_cycle;Signal;HPM_P1;HPM_P2
2022/01/24 22:09:35;;;;;;;16.40;6.53;;;;;;;-5.47;77.59;140950.88;1803580;79;21844;-58
2022/01/24 22:12:04;;;;;;;17.20;7.22;;;;;;;-5.52;77.49;140938.50;1761123;81;21582;-59
2022/01/24 22:14:31;;;;;;;14.05;7.15;;;;;;;-5.51;77.51;140940.95;1724282;83;21501;-61
2022/01/24 22:16:58;;;;;;;14.90;6.60;;;;;;;-5.49;77.42;140944.69;1727894;82;21023;-61
2022/01/24 22:19:24;;;;;;;16.75;7.45;;;;;;;-5.52;77.48;140938.50;1720976;83;21062;-61
2022/01/24 22:21:51;;;;;;;17.07;8.13;;;;;;;-5.49;77.53;140944.69;1720391;83;21034;-59
2022/01/24 22:24:18;;;;;;;13.38;6.33;;;;;;;-5.52;77.49;140938.50;1736314;82;21691;-61
2022/01/24 22:26:44;;;;;;;13.00;6.20;;;;;;;-5.55;77.49;140931.05;1727284;83;21532;-61
2022/01/24 22:29:11;;;;;;;13.18;6.58;;;;;;;-5.64;77.47;140908.81;1717657;83;21069;-60
2022/01/24 22:31:39;;;;;;;13.00;6.47;;;;;;;-5.64;77.55;140908.81;1717249;82;21059;-59
2022/01/24 22:34:06;;;;;;;11.93;6.72;;;;;;;-5.62;77.58;140913.78;1718428;82;21025;-59
2022/01/24 22:36:34;;;;;;;13.20;6.80;;;;;;;-5.62;77.49;140913.78;1717987;83;21105;-60
2022/01/24 22:39:01;;;;;;;12.78;6.50;;;;;;;-5.59;77.51;140919.95;1719026;83;21069;-60
2022/01/24 22:42:10;;;;;;;10.58;5.42;;;;;;;-5.63;77.34;140910.05;1706153;83;21094;-60
2022/01/24 22:43:59;;;;;;;12.60;5.95;;;;;;;-5.73;77.44;140886.55;1689987;83;21126;-60
2022/01/24 22:46:28;;;;;;;10.90;6.08;;;;;;;-5.79;77.77;140871.73;1710846;83;21062;-61
2022/01/24 22:48:58;;;;;;;14.73;6.53;;;;;;;-5.76;77.91;140879.14;1708184;83;21013;-61
2022/01/24 22:51:25;;;;;;;14.73;7.08;;;;;;;-5.71;77.78;140891.50;1715226;82;21604;-60
2022/01/24 22:53:53;;;;;;;12.80;6.35;;;;;;;-5.68;77.58;140900.13;1714488;83;21095;-60
2022/01/24 22:56:20;;;;;;;15.08;6.70;;;;;;;-5.67;77.53;140901.41;1714019;83;21055;-60
2022/01/24 22:58:50;;;;;;;13.48;6.62;;;;;;;-5.64;77.46;140908.81;1734954;83;21132;-59
2022/01/24 23:01:20;;;;;;;17.57;7.35;;;;;;;-5.64;77.38;140908.81;1735079;83;21115;-59
2022/01/24 23:03:47;;;;;;;13.47;6.83;;;;;;;-5.65;77.33;140905.09;1726306;83;21552;-58
2022/01/24 23:06:14;;;;;;;16.42;7.00;;;;;;;-5.67;77.49;140902.64;1726696;82;21303;-58
2022/01/24 23:08:41;;;;;;;13.40;5.97;;;;;;;-5.72;77.56;140889.05;1716193;83;21067;-58
2022/01/24 23:11:16;;;;;;;14.43;6.95;;;;;;;-5.69;77.63;140897.69;1738075;82;21000;-57
2022/01/24 23:21:21;;;;;;;15.48;6.72;;;;;;;-5.55;77.35;140931.05;1773934;79;21572;-59
2022/01/24 23:23:49;;;;;;;10.43;5.95;;;;;;;-5.58;77.17;140923.64;1773912;79;21583;-60
2022/01/24 23:26:16;;;;;;;13.15;6.87;;;;;;;-5.63;77.01;140911.28;1770580;81;21071;-61
2022/01/24 23:28:48;;;;;;;15.15;6.22;;;;;;;-5.69;77.12;140896.45;1712652;82;21036;-59
2022/01/24 23:31:14;;;;;;;13.98;6.87;;;;;;;-5.71;77.34;140891.50;1747965;81;21064;-58
2022/01/24 23:34:14;;;;;;;16.17;7.83;;;;;;;-5.72;77.20;140889.05;1712622;83;21558;-61
2022/01/24 23:39:14;;;;;;;11.80;6.03;;;;;;;-5.81;77.34;140868.00;1775035;81;21502;-59
2022/01/24 23:41:48;;;;;;;12.50;6.65;;;;;;;-5.82;77.57;140865.55;1767683;81;21017;-61
2022/01/24 23:44:15;;;;;;;13.08;6.60;;;;;;;-5.81;77.41;140866.78;1713517;83;21016;-61
2022/01/24 23:46:44;;;;;;;15.40;7.12;;;;;;;-5.85;77.39;140856.88;1749824;80;21000;-60
2022/01/24 23:49:11;;;;;;;15.03;6.80;;;;;;;-5.84;77.51;140860.59;1708872;83;20992;-59
2022/01/24 23:51:38;;;;;;;15.25;7.08;;;;;;;-5.79;77.49;140872.95;1744488;81;21004;-60
2022/01/24 23:54:06;;;;;;;12.98;6.90;;;;;;;-5.78;77.42;140874.19;1710426;83;21063;-58
2022/01/24 23:56:40;;;;;;;14.23;6.37;;;;;;;-5.76;77.47;140879.14;1747321;81;21467;-60
